DAL837 KATL-PHOG
Flight info
| Callsign | DAL837 |
|---|---|
| Flight time | N/A |
| Altitude | 32000 |
| Route | NASSA2 VUZ SQS J52 TXK/N0479F340 UKW HNKER CNX J74 MAXXO/N0463F360 J74 PKE TRM SXC C1177 MALIT IGOTT FICKY R578 FIZEL/N0460F380 R578 FITES LAVAS1 |
| Aircraft | A333/H-SDE3GHIJ2J3J5M1RVWXY/LB2D1 |
Departure
| Time | 2026-05-07 22:55 |
|---|---|
| Airport | Hartsfield Jackson Atlanta International Airport (KATL) |
Arrival
| Time | N/A |
|---|---|
| Airport | Kahului International Airport (PHOG) |
| Time | Latitude | Longitude | Altitude | Speed | Heading |
|---|---|---|---|---|---|
| 2026-05-07 22:27 | 33.64244 | -84.42510 | 1028 ft | 0 kts | 270° |
| 2026-05-07 22:40 | 33.64244 | -84.42506 | 1027 ft | 2 kts | 271° |
| 2026-05-07 22:41 | 33.64243 | -84.42488 | 1027 ft | 2 kts | 272° |
| 2026-05-07 22:41 | 33.64243 | -84.42477 | 1027 ft | 1 kts | 270° |
| 2026-05-07 22:41 | 33.64244 | -84.42459 | 1027 ft | 2 kts | 258° |
| 2026-05-07 22:41 | 33.64248 | -84.42442 | 1027 ft | 2 kts | 246° |
| 2026-05-07 22:42 | 33.64255 | -84.42426 | 1027 ft | 2 kts | 235° |
| 2026-05-07 22:42 | 33.64264 | -84.42412 | 1027 ft | 2 kts | 224° |
| 2026-05-07 22:42 | 33.64276 | -84.42400 | 1027 ft | 2 kts | 213° |
| 2026-05-07 22:42 | 33.64289 | -84.42392 | 1027 ft | 2 kts | 201° |
| 2026-05-07 22:43 | 33.64303 | -84.42387 | 1027 ft | 2 kts | 190° |
| 2026-05-07 22:43 | 33.64316 | -84.42384 | 1027 ft | 0 kts | 180° |
| 2026-05-07 22:43 | 33.64319 | -84.42384 | 1027 ft | 0 kts | 179° |
| 2026-05-07 22:46 | 33.64279 | -84.42371 | 1027 ft | 8 kts | 138° |
| 2026-05-07 22:47 | 33.64269 | -84.42340 | 1027 ft | 0 kts | 99° |
| 2026-05-07 22:47 | 33.64269 | -84.42341 | 1027 ft | 0 kts | 99° |
| 2026-05-07 22:47 | 33.64267 | -84.42334 | 1027 ft | 1 kts | 99° |
| 2026-05-07 22:47 | 33.64267 | -84.42329 | 1027 ft | 0 kts | 96° |
| 2026-05-07 22:48 | 33.64266 | -84.42300 | 1027 ft | 8 kts | 86° |
| 2026-05-07 22:48 | 33.64307 | -84.42244 | 1026 ft | 3 kts | 21° |
| 2026-05-07 22:48 | 33.64368 | -84.42230 | 1024 ft | 12 kts | 0° |
| 2026-05-07 22:49 | 33.64410 | -84.42231 | 1022 ft | 4 kts | 359° |
| 2026-05-07 22:49 | 33.64464 | -84.42235 | 1020 ft | 10 kts | 356° |
| 2026-05-07 22:49 | 33.64520 | -84.42191 | 1018 ft | 9 kts | 62° |
| 2026-05-07 22:49 | 33.64537 | -84.42117 | 1018 ft | 8 kts | 81° |
| 2026-05-07 22:50 | 33.64540 | -84.42043 | 1017 ft | 9 kts | 89° |
| 2026-05-07 22:50 | 33.64540 | -84.41941 | 1014 ft | 14 kts | 91° |
| 2026-05-07 22:50 | 33.64539 | -84.41813 | 1012 ft | 16 kts | 90° |
| 2026-05-07 22:50 | 33.64539 | -84.41670 | 1012 ft | 17 kts | 89° |
| 2026-05-07 22:51 | 33.64540 | -84.41540 | 1015 ft | 14 kts | 89° |
| 2026-05-07 22:51 | 33.64542 | -84.41428 | 1017 ft | 12 kts | 89° |
| 2026-05-07 22:51 | 33.64541 | -84.41296 | 1020 ft | 18 kts | 96° |
| 2026-05-07 22:51 | 33.64539 | -84.41127 | 1023 ft | 20 kts | 90° |
| 2026-05-07 22:52 | 33.64540 | -84.40967 | 1027 ft | 17 kts | 89° |
| 2026-05-07 22:52 | 33.64531 | -84.40836 | 1031 ft | 13 kts | 101° |
| 2026-05-07 22:52 | 33.64519 | -84.40736 | 1036 ft | 15 kts | 95° |
| 2026-05-07 22:52 | 33.64528 | -84.40622 | 1039 ft | 11 kts | 58° |
| 2026-05-07 22:53 | 33.64584 | -84.40570 | 1040 ft | 9 kts | 24° |
| 2026-05-07 22:53 | 33.64642 | -84.40570 | 1040 ft | 8 kts | 338° |
| 2026-05-07 22:53 | 33.64681 | -84.40621 | 1040 ft | 0 kts | 279° |
| 2026-05-07 22:53 | 33.64681 | -84.40632 | 1039 ft | 3 kts | 271° |
| 2026-05-07 22:54 | 33.64681 | -84.40823 | 1032 ft | 54 kts | 269° |
| 2026-05-07 22:54 | 33.64682 | -84.41568 | 1015 ft | 121 kts | 269° |
| 2026-05-07 22:54 | 33.64697 | -84.42818 | 1026 ft | 173 kts | 274° |
| 2026-05-07 22:54 | 33.64740 | -84.44316 | 1539 ft | 182 kts | 270° |
| 2026-05-07 22:55 | 33.64690 | -84.45727 | 2382 ft | 166 kts | 269° |
| 2026-05-07 22:55 | 33.64618 | -84.47151 | 2957 ft | 171 kts | 269° |
| 2026-05-07 22:55 | 33.64726 | -84.48586 | 3148 ft | 178 kts | 291° |
| 2026-05-07 22:55 | 33.65179 | -84.50022 | 3283 ft | 195 kts | 289° |
| 2026-05-07 22:56 | 33.65586 | -84.51680 | 3511 ft | 214 kts | 287° |
| 2026-05-07 22:56 | 33.65978 | -84.53439 | 3863 ft | 227 kts | 286° |
| 2026-05-07 22:56 | 33.66383 | -84.55341 | 4253 ft | 240 kts | 285° |
| 2026-05-07 22:56 | 33.66797 | -84.57317 | 4792 ft | 247 kts | 285° |
| 2026-05-07 22:57 | 33.67252 | -84.59292 | 5514 ft | 245 kts | 288° |
| 2026-05-07 22:57 | 33.67589 | -84.61278 | 6138 ft | 247 kts | 279° |
| 2026-05-07 22:57 | 33.67875 | -84.63300 | 6819 ft | 247 kts | 281° |
| 2026-05-07 22:57 | 33.68201 | -84.65313 | 7492 ft | 246 kts | 281° |
| 2026-05-07 22:58 | 33.68539 | -84.67335 | 8198 ft | 245 kts | 281° |
| 2026-05-07 22:58 | 33.68870 | -84.69302 | 8850 ft | 245 kts | 281° |
| 2026-05-07 22:58 | 33.69212 | -84.71327 | 9481 ft | 246 kts | 281° |
| 2026-05-07 22:58 | 33.69549 | -84.73322 | 10145 ft | 245 kts | 280° |
| 2026-05-07 22:59 | 33.69889 | -84.75343 | 10579 ft | 254 kts | 281° |
| 2026-05-07 22:59 | 33.70041 | -84.77524 | 10744 ft | 272 kts | 270° |
| 2026-05-07 22:59 | 33.69994 | -84.79864 | 10960 ft | 287 kts | 271° |
| 2026-05-07 22:59 | 33.69984 | -84.82332 | 11147 ft | 303 kts | 270° |
| 2026-05-07 23:00 | 33.69977 | -84.84920 | 11444 ft | 314 kts | 271° |
| 2026-05-07 23:00 | 33.69972 | -84.87562 | 12042 ft | 314 kts | 271° |
| 2026-05-07 23:00 | 33.69967 | -84.90192 | 12698 ft | 313 kts | 271° |
| 2026-05-07 23:00 | 33.69962 | -84.92818 | 13241 ft | 314 kts | 271° |
| 2026-05-07 23:01 | 33.69955 | -84.95443 | 13796 ft | 314 kts | 271° |
| 2026-05-07 23:01 | 33.69948 | -84.98085 | 14275 ft | 315 kts | 271° |
| 2026-05-07 23:01 | 33.69944 | -85.00706 | 14738 ft | 317 kts | 270° |
| 2026-05-07 23:01 | 33.69934 | -85.03379 | 15259 ft | 317 kts | 270° |
| 2026-05-07 23:02 | 33.69926 | -85.06023 | 15742 ft | 318 kts | 270° |
| 2026-05-07 23:02 | 33.69918 | -85.08677 | 16176 ft | 319 kts | 270° |
| 2026-05-07 23:02 | 33.69908 | -85.11375 | 16588 ft | 321 kts | 270° |
| 2026-05-07 23:02 | 33.69898 | -85.14028 | 17001 ft | 322 kts | 270° |
| 2026-05-07 23:03 | 33.69888 | -85.16756 | 17421 ft | 323 kts | 270° |
| 2026-05-07 23:03 | 33.69875 | -85.19424 | 17888 ft | 322 kts | 269° |
| 2026-05-07 23:03 | 33.69861 | -85.22147 | 18210 ft | 326 kts | 269° |
| 2026-05-07 23:03 | 33.69837 | -85.24842 | 18564 ft | 328 kts | 269° |
| 2026-05-07 23:04 | 33.69807 | -85.27613 | 18930 ft | 329 kts | 269° |
| 2026-05-07 23:04 | 33.69777 | -85.30359 | 19303 ft | 330 kts | 269° |
| 2026-05-07 23:04 | 33.69747 | -85.33134 | 19615 ft | 333 kts | 269° |
| 2026-05-07 23:04 | 33.69714 | -85.35940 | 19950 ft | 334 kts | 269° |
| 2026-05-07 23:05 | 33.69686 | -85.38717 | 20293 ft | 335 kts | 269° |
| 2026-05-07 23:05 | 33.69649 | -85.41542 | 20578 ft | 337 kts | 269° |
| 2026-05-07 23:05 | 33.69619 | -85.44371 | 20894 ft | 338 kts | 269° |
| 2026-05-07 23:05 | 33.69583 | -85.47202 | 21192 ft | 340 kts | 269° |
| 2026-05-07 23:06 | 33.69548 | -85.50035 | 21415 ft | 343 kts | 269° |
| 2026-05-07 23:06 | 33.69512 | -85.52921 | 21700 ft | 344 kts | 269° |
| 2026-05-07 23:06 | 33.69474 | -85.55804 | 21929 ft | 346 kts | 269° |
| 2026-05-07 23:06 | 33.69437 | -85.58677 | 22193 ft | 348 kts | 269° |
| 2026-05-07 23:07 | 33.69398 | -85.61596 | 22467 ft | 348 kts | 269° |